sensor_id;sensor_type;location;lat;lon;timestamp;pressure;altitude;pressure_sealevel;temperature;humidity
72330;BME280;69154;52.076;5.110;2023-04-21T00:01:16;101705.96;;;5.66;39.25
72330;BME280;69154;52.076;5.110;2023-04-21T00:03:41;101706.91;;;5.59;39.33
72330;BME280;69154;52.076;5.110;2023-04-21T00:06:07;101705.60;;;4.88;39.80
72330;BME280;69154;52.076;5.110;2023-04-21T00:08:33;101711.70;;;4.92;40.43
72330;BME280;69154;52.076;5.110;2023-04-21T00:10:58;101713.28;;;4.54;40.29
72330;BME280;69154;52.076;5.110;2023-04-21T00:13:24;101708.82;;;5.05;40.19
72330;BME280;69154;52.076;5.110;2023-04-21T00:15:49;101693.83;;;4.74;40.66
72330;BME280;69154;52.076;5.110;2023-04-21T00:18:14;101675.54;;;4.44;41.78
72330;BME280;69154;52.076;5.110;2023-04-21T00:20:40;101671.53;;;5.34;40.89
72330;BME280;69154;52.076;5.110;2023-04-21T00:23:05;101675.02;;;5.89;39.04
72330;BME280;69154;52.076;5.110;2023-04-21T00:25:30;101676.13;;;4.84;40.14
72330;BME280;69154;52.076;5.110;2023-04-21T00:27:56;101681.41;;;6.81;38.09
72330;BME280;69154;52.076;5.110;2023-04-21T00:30:22;101675.43;;;7.64;36.88
72330;BME280;69154;52.076;5.110;2023-04-21T00:32:47;101665.55;;;7.66;36.36
72330;BME280;69154;52.076;5.110;2023-04-21T00:35:12;101657.07;;;7.70;35.73
72330;BME280;69154;52.076;5.110;2023-04-21T00:37:38;101660.48;;;6.29;38.11
72330;BME280;69154;52.076;5.110;2023-04-21T00:40:04;101652.26;;;6.50;37.81
72330;BME280;69154;52.076;5.110;2023-04-21T00:42:28;101647.55;;;7.63;36.51
72330;BME280;69154;52.076;5.110;2023-04-21T00:44:54;101636.64;;;5.84;38.17
72330;BME280;69154;52.076;5.110;2023-04-21T00:47:20;101643.26;;;5.04;39.95
72330;BME280;69154;52.076;5.110;2023-04-21T00:49:45;101646.89;;;5.21;39.72
72330;BME280;69154;52.076;5.110;2023-04-21T00:52:11;101650.69;;;4.31;41.86
72330;BME280;69154;52.076;5.110;2023-04-21T00:54:37;101651.17;;;5.56;40.55
72330;BME280;69154;52.076;5.110;2023-04-21T00:57:02;101643.71;;;4.57;41.58
72330;BME280;69154;52.076;5.110;2023-04-21T00:59:27;101625.39;;;5.45;40.92
72330;BME280;69154;52.076;5.110;2023-04-21T01:01:52;101630.02;;;5.22;41.00
72330;BME280;69154;52.076;5.110;2023-04-21T01:04:17;101635.98;;;4.90;41.70
72330;BME280;69154;52.076;5.110;2023-04-21T01:06:44;101635.89;;;4.22;42.64
72330;BME280;69154;52.076;5.110;2023-04-21T01:09:09;101640.07;;;3.21;45.43
72330;BME280;69154;52.076;5.110;2023-04-21T01:11:34;101632.44;;;3.99;44.36
72330;BME280;69154;52.076;5.110;2023-04-21T01:14:00;101630.51;;;3.66;44.35
72330;BME280;69154;52.076;5.110;2023-04-21T01:16:26;101630.23;;;4.58;43.58
72330;BME280;69154;52.076;5.110;2023-04-21T01:18:51;101628.44;;;4.66;42.15
72330;BME280;69154;52.076;5.110;2023-04-21T01:21:16;101630.20;;;3.02;45.34
72330;BME280;69154;52.076;5.110;2023-04-21T01:23:42;101630.36;;;5.34;42.75
72330;BME280;69154;52.076;5.110;2023-04-21T01:26:08;101618.90;;;3.90;43.73
72330;BME280;69154;52.076;5.110;2023-04-21T01:28:33;101620.33;;;4.64;43.54
72330;BME280;69154;52.076;5.110;2023-04-21T01:30:59;101619.04;;;3.59;43.49
72330;BME280;69154;52.076;5.110;2023-04-21T01:33:24;101612.86;;;3.72;43.94
72330;BME280;69154;52.076;5.110;2023-04-21T01:35:49;101611.57;;;3.39;44.21
72330;BME280;69154;52.076;5.110;2023-04-21T01:38:15;101610.02;;;4.65;43.52
72330;BME280;69154;52.076;5.110;2023-04-21T01:40:40;101611.99;;;5.73;41.65
72330;BME280;69154;52.076;5.110;2023-04-21T01:43:06;101610.32;;;5.77;39.84
72330;BME280;69154;52.076;5.110;2023-04-21T01:45:31;101613.27;;;5.54;40.66
72330;BME280;69154;52.076;5.110;2023-04-21T01:47:57;101602.72;;;6.00;39.71
72330;BME280;69154;52.076;5.110;2023-04-21T01:50:22;101591.07;;;7.71;38.09
72330;BME280;69154;52.076;5.110;2023-04-21T01:52:47;101588.39;;;7.41;37.32
72330;BME280;69154;52.076;5.110;2023-04-21T01:55:13;101587.93;;;6.33;39.50
72330;BME280;69154;52.076;5.110;2023-04-21T01:57:39;101587.03;;;6.02;39.32
72330;BME280;69154;52.076;5.110;2023-04-21T02:00:05;101589.18;;;5.94;39.27
72330;BME280;69154;52.076;5.110;2023-04-21T02:02:29;101579.79;;;6.28;39.20
72330;BME280;69154;52.076;5.110;2023-04-21T02:04:55;101583.02;;;5.38;40.57
72330;BME280;69154;52.076;5.110;2023-04-21T02:07:21;101588.15;;;5.61;40.72
72330;BME280;69154;52.076;5.110;2023-04-21T02:09:46;101589.48;;;5.06;41.45
72330;BME280;69154;52.076;5.110;2023-04-21T02:12:12;101588.89;;;5.02;42.14
72330;BME280;69154;52.076;5.110;2023-04-21T02:14:37;101594.28;;;5.55;41.49
72330;BME280;69154;52.076;5.110;2023-04-21T02:17:03;101588.91;;;5.75;41.41
72330;BME280;69154;52.076;5.110;2023-04-21T02:19:28;101588.70;;;6.71;39.82
72330;BME280;69154;52.076;5.110;2023-04-21T02:21:53;101581.85;;;6.35;39.72
72330;BME280;69154;52.076;5.110;2023-04-21T02:24:19;101583.38;;;6.95;38.84
72330;BME280;69154;52.076;5.110;2023-04-21T02:26:45;101586.12;;;4.87;41.80
72330;BME280;69154;52.076;5.110;2023-04-21T02:29:10;101578.36;;;6.25;40.17
72330;BME280;69154;52.076;5.110;2023-04-21T02:31:35;101576.31;;;6.01;41.45
72330;BME280;69154;52.076;5.110;2023-04-21T02:34:00;101576.95;;;4.62;42.38
72330;BME280;69154;52.076;5.110;2023-04-21T02:36:26;101571.16;;;3.62;45.23
72330;BME280;69154;52.076;5.110;2023-04-21T02:38:51;101574.03;;;2.51;46.29
72330;BME280;69154;52.076;5.110;2023-04-21T02:41:17;101569.87;;;4.54;44.95
72330;BME280;69154;52.076;5.110;2023-04-21T02:43:43;101562.55;;;5.75;42.41
72330;BME280;69154;52.076;5.110;2023-04-21T02:46:08;101565.71;;;4.15;44.40
72330;BME280;69154;52.076;5.110;2023-04-21T02:48:33;101572.15;;;5.49;42.84
72330;BME280;69154;52.076;5.110;2023-04-21T02:50:58;101562.35;;;6.25;40.28
72330;BME280;69154;52.076;5.110;2023-04-21T02:53:23;101561.86;;;7.36;38.94
72330;BME280;69154;52.076;5.110;2023-04-21T02:55:48;101558.34;;;6.11;39.77
72330;BME280;69154;52.076;5.110;2023-04-21T02:58:14;101553.42;;;5.91;40.97
72330;BME280;69154;52.076;5.110;2023-04-21T03:00:40;101557.45;;;6.46;41.04
72330;BME280;69154;52.076;5.110;2023-04-21T03:03:04;101557.72;;;6.02;40.69
72330;BME280;69154;52.076;5.110;2023-04-21T03:05:30;101558.47;;;6.71;39.78
72330;BME280;69154;52.076;5.110;2023-04-21T03:07:55;101559.60;;;7.04;38.59
72330;BME280;69154;52.076;5.110;2023-04-21T03:10:20;101551.15;;;7.73;37.73
72330;BME280;69154;52.076;5.110;2023-04-21T03:12:45;101551.58;;;5.63;40.64
72330;BME280;69154;52.076;5.110;2023-04-21T03:15:11;101556.94;;;6.01;40.35
72330;BME280;69154;52.076;5.110;2023-04-21T03:17:36;101566.41;;;6.56;40.34
72330;BME280;69154;52.076;5.110;2023-04-21T03:20:01;101556.42;;;4.44;42.74
72330;BME280;69154;52.076;5.110;2023-04-21T03:22:26;101565.61;;;5.68;41.99
72330;BME280;69154;52.076;5.110;2023-04-21T03:24:51;101561.72;;;4.83;41.97
72330;BME280;69154;52.076;5.110;2023-04-21T03:27:17;101555.73;;;5.34;42.54
72330;BME280;69154;52.076;5.110;2023-04-21T03:29:42;101546.26;;;5.92;41.20
72330;BME280;69154;52.076;5.110;2023-04-21T03:32:08;101553.84;;;3.66;44.36
72330;BME280;69154;52.076;5.110;2023-04-21T03:34:34;101542.90;;;4.50;44.57
72330;BME280;69154;52.076;5.110;2023-04-21T03:36:59;101548.07;;;4.57;43.94
72330;BME280;69154;52.076;5.110;2023-04-21T03:39:25;101534.73;;;6.57;41.67
72330;BME280;69154;52.076;5.110;2023-04-21T03:41:51;101546.60;;;4.25;43.58
72330;BME280;69154;52.076;5.110;2023-04-21T03:44:16;101534.14;;;4.96;43.14
72330;BME280;69154;52.076;5.110;2023-04-21T03:46:41;101523.81;;;5.88;42.07
72330;BME280;69154;52.076;5.110;2023-04-21T03:49:07;101521.23;;;5.09;42.93
72330;BME280;69154;52.076;5.110;2023-04-21T03:51:32;101523.29;;;4.53;43.41
72330;BME280;69154;52.076;5.110;2023-04-21T03:53:57;101519.39;;;2.82;45.37
72330;BME280;69154;52.076;5.110;2023-04-21T03:56:23;101519.72;;;5.50;43.25
72330;BME280;69154;52.076;5.110;2023-04-21T03:58:48;101523.57;;;3.79;44.86
72330;BME280;69154;52.076;5.110;2023-04-21T04:01:13;101518.18;;;6.50;41.43
72330;BME280;69154;52.076;5.110;2023-04-21T04:03:40;101518.87;;;3.85;44.67
72330;BME280;69154;52.076;5.110;2023-04-21T04:06:04;101518.86;;;4.15;44.62
72330;BME280;69154;52.076;5.110;2023-04-21T04:08:30;101518.12;;;2.93;47.28
72330;BME280;69154;52.076;5.110;2023-04-21T04:10:55;101519.95;;;2.91;47.46
72330;BME280;69154;52.076;5.110;2023-04-21T04:13:20;101516.56;;;4.39;44.98
72330;BME280;69154;52.076;5.110;2023-04-21T04:15:46;101513.64;;;5.03;43.85
72330;BME280;69154;52.076;5.110;2023-04-21T04:18:11;101507.02;;;4.91;44.23
72330;BME280;69154;52.076;5.110;2023-04-21T04:20:38;101508.46;;;4.68;44.68
72330;BME280;69154;52.076;5.110;2023-04-21T04:23:02;101505.05;;;2.85;48.87
72330;BME280;69154;52.076;5.110;2023-04-21T04:25:28;101507.96;;;1.87;52.58
72330;BME280;69154;52.076;5.110;2023-04-21T04:27:54;101508.53;;;1.95;51.62
72330;BME280;69154;52.076;5.110;2023-04-21T04:30:20;101498.89;;;2.66;51.14
72330;BME280;69154;52.076;5.110;2023-04-21T04:32:45;101503.76;;;2.90;50.30
72330;BME280;69154;52.076;5.110;2023-04-21T04:35:10;101503.25;;;3.13;50.51
72330;BME280;69154;52.076;5.110;2023-04-21T04:37:36;101503.05;;;3.55;50.03
72330;BME280;69154;52.076;5.110;2023-04-21T04:40:02;101503.78;;;2.83;50.71
72330;BME280;69154;52.076;5.110;2023-04-21T04:42:27;101512.74;;;2.27;52.86
72330;BME280;69154;52.076;5.110;2023-04-21T04:44:53;101512.47;;;2.11;54.14
72330;BME280;69154;52.076;5.110;2023-04-21T04:47:18;101517.18;;;1.76;56.82
72330;BME280;69154;52.076;5.110;2023-04-21T04:49:43;101520.25;;;1.58;56.63
72330;BME280;69154;52.076;5.110;2023-04-21T04:52:08;101519.50;;;3.04;53.26
72330;BME280;69154;52.076;5.110;2023-04-21T04:54:34;101516.86;;;3.95;50.22
72330;BME280;69154;52.076;5.110;2023-04-21T04:56:59;101520.64;;;1.58;53.68
72330;BME280;69154;52.076;5.110;2023-04-21T04:59:25;101518.26;;;3.00;52.06
72330;BME280;69154;52.076;5.110;2023-04-21T05:01:50;101520.21;;;2.87;50.95
72330;BME280;69154;52.076;5.110;2023-04-21T05:04:16;101519.47;;;3.51;50.61
72330;BME280;69154;52.076;5.110;2023-04-21T05:06:42;101517.81;;;3.83;49.96
72330;BME280;69154;52.076;5.110;2023-04-21T05:09:08;101510.79;;;2.95;51.37
72330;BME280;69154;52.076;5.110;2023-04-21T05:11:33;101509.01;;;4.36;48.36
72330;BME280;69154;52.076;5.110;2023-04-21T05:13:58;101515.56;;;2.12;51.77
72330;BME280;69154;52.076;5.110;2023-04-21T05:16:24;101520.63;;;3.49;51.04
72330;BME280;69154;52.076;5.110;2023-04-21T05:18:50;101524.10;;;2.96;51.41
72330;BME280;69154;52.076;5.110;2023-04-21T05:21:21;101522.53;;;4.17;49.96
72330;BME280;69154;52.076;5.110;2023-04-21T05:23:41;101528.66;;;4.29;48.16
72330;BME280;69154;52.076;5.110;2023-04-21T05:26:06;101523.85;;;4.62;47.63
72330;BME280;69154;52.076;5.110;2023-04-21T05:28:32;101528.50;;;3.95;49.45
72330;BME280;69154;52.076;5.110;2023-04-21T05:30:57;101531.41;;;3.36;49.76
72330;BME280;69154;52.076;5.110;2023-04-21T05:33:23;101534.24;;;4.72;48.46
72330;BME280;69154;52.076;5.110;2023-04-21T05:35:48;101533.68;;;2.74;50.72
72330;BME280;69154;52.076;5.110;2023-04-21T05:38:14;101537.61;;;3.17;50.78
72330;BME280;69154;52.076;5.110;2023-04-21T05:40:40;101539.29;;;3.38;51.06
72330;BME280;69154;52.076;5.110;2023-04-21T05:43:05;101537.21;;;4.18;49.43
72330;BME280;69154;52.076;5.110;2023-04-21T05:45:30;101535.81;;;4.60;49.15
72330;BME280;69154;52.076;5.110;2023-04-21T05:47:56;101536.04;;;2.89;50.93
72330;BME280;69154;52.076;5.110;2023-04-21T05:50:22;101539.61;;;4.96;47.20
72330;BME280;69154;52.076;5.110;2023-04-21T05:52:47;101542.04;;;3.49;48.60
72330;BME280;69154;52.076;5.110;2023-04-21T05:55:12;101547.28;;;4.72;47.04
72330;BME280;69154;52.076;5.110;2023-04-21T05:57:38;101548.00;;;4.15;48.81
72330;BME280;69154;52.076;5.110;2023-04-21T06:00:04;101551.71;;;4.31;48.00
72330;BME280;69154;52.076;5.110;2023-04-21T06:02:28;101555.18;;;4.47;48.98
72330;BME280;69154;52.076;5.110;2023-04-21T06:04:54;101554.44;;;3.81;49.48
72330;BME280;69154;52.076;5.110;2023-04-21T06:07:20;101552.33;;;4.62;48.67
72330;BME280;69154;52.076;5.110;2023-04-21T06:09:49;101556.04;;;3.17;50.77
72330;BME280;69154;52.076;5.110;2023-04-21T06:12:11;101555.31;;;2.66;54.08
72330;BME280;69154;52.076;5.110;2023-04-21T06:14:37;101551.67;;;3.09;54.82
72330;BME280;69154;52.076;5.110;2023-04-21T06:17:02;101553.87;;;2.83;57.19
72330;BME280;69154;52.076;5.110;2023-04-21T06:19:27;101554.99;;;3.21;54.29
72330;BME280;69154;52.076;5.110;2023-04-21T06:21:53;101554.42;;;3.39;52.54
72330;BME280;69154;52.076;5.110;2023-04-21T06:24:18;101546.26;;;3.47;52.57
72330;BME280;69154;52.076;5.110;2023-04-21T06:26:44;101544.89;;;2.75;53.18
72330;BME280;69154;52.076;5.110;2023-04-21T06:29:09;101545.17;;;3.42;52.96
72330;BME280;69154;52.076;5.110;2023-04-21T06:31:34;101546.90;;;4.94;50.73
72330;BME280;69154;52.076;5.110;2023-04-21T06:34:00;101546.35;;;4.49;50.69
72330;BME280;69154;52.076;5.110;2023-04-21T06:36:25;101549.52;;;3.17;53.22
72330;BME280;69154;52.076;5.110;2023-04-21T06:38:50;101544.33;;;2.24;55.94
72330;BME280;69154;52.076;5.110;2023-04-21T06:41:16;101543.07;;;3.02;55.06
72330;BME280;69154;52.076;5.110;2023-04-21T06:43:41;101540.08;;;2.71;55.83
72330;BME280;69154;52.076;5.110;2023-04-21T06:46:07;101539.14;;;4.54;52.73
72330;BME280;69154;52.076;5.110;2023-04-21T06:48:33;101546.19;;;5.36;50.46
72330;BME280;69154;52.076;5.110;2023-04-21T06:50:58;101543.00;;;4.10;51.78
72330;BME280;69154;52.076;5.110;2023-04-21T06:53:30;101543.01;;;3.45;52.86
72330;BME280;69154;52.076;5.110;2023-04-21T06:55:50;101544.17;;;4.33;52.72
72330;BME280;69154;52.076;5.110;2023-04-21T06:58:15;101545.79;;;4.24;52.67
72330;BME280;69154;52.076;5.110;2023-04-21T07:00:41;101546.18;;;5.43;49.91
72330;BME280;69154;52.076;5.110;2023-04-21T07:03:06;101545.06;;;5.21;48.29
72330;BME280;69154;52.076;5.110;2023-04-21T07:05:32;101536.37;;;4.53;51.98
72330;BME280;69154;52.076;5.110;2023-04-21T07:07:57;101537.37;;;3.63;51.93
72330;BME280;69154;52.076;5.110;2023-04-21T07:10:23;101540.96;;;4.85;50.28
72330;BME280;69154;52.076;5.110;2023-04-21T07:12:48;101538.61;;;5.84;47.83
72330;BME280;69154;52.076;5.110;2023-04-21T07:15:14;101536.09;;;6.59;46.63
72330;BME280;69154;52.076;5.110;2023-04-21T07:17:40;101532.60;;;6.11;47.13
72330;BME280;69154;52.076;5.110;2023-04-21T07:20:06;101532.26;;;6.44;45.21
72330;BME280;69154;52.076;5.110;2023-04-21T07:22:31;101536.09;;;6.28;46.04
72330;BME280;69154;52.076;5.110;2023-04-21T07:24:55;101534.85;;;5.80;46.78
72330;BME280;69154;52.076;5.110;2023-04-21T07:27:21;101533.96;;;8.46;42.98
72330;BME280;69154;52.076;5.110;2023-04-21T07:29:46;101533.70;;;8.18;42.33
72330;BME280;69154;52.076;5.110;2023-04-21T07:32:11;101538.54;;;6.13;44.85
72330;BME280;69154;52.076;5.110;2023-04-21T07:34:36;101542.43;;;4.67;49.53
72330;BME280;69154;52.076;5.110;2023-04-21T07:37:02;101543.96;;;4.91;49.13
72330;BME280;69154;52.076;5.110;2023-04-21T07:39:29;101548.39;;;5.87;48.38
72330;BME280;69154;52.076;5.110;2023-04-21T07:41:53;101543.24;;;7.00;45.57
72330;BME280;69154;52.076;5.110;2023-04-21T07:44:19;101546.71;;;5.61;46.36
72330;BME280;69154;52.076;5.110;2023-04-21T07:46:44;101545.31;;;7.79;43.30
72330;BME280;69154;52.076;5.110;2023-04-21T07:49:10;101545.76;;;6.78;44.81
72330;BME280;69154;52.076;5.110;2023-04-21T07:51:35;101543.48;;;8.56;41.48
72330;BME280;69154;52.076;5.110;2023-04-21T07:54:01;101548.28;;;8.35;39.97
72330;BME280;69154;52.076;5.110;2023-04-21T07:56:26;101547.18;;;6.95;43.77
72330;BME280;69154;52.076;5.110;2023-04-21T07:58:51;101546.31;;;8.40;40.56
72330;BME280;69154;52.076;5.110;2023-04-21T08:01:17;101542.32;;;9.38;39.71
72330;BME280;69154;52.076;5.110;2023-04-21T08:03:42;101542.22;;;7.75;41.31
72330;BME280;69154;52.076;5.110;2023-04-21T08:06:08;101543.17;;;7.22;42.42
72330;BME280;69154;52.076;5.110;2023-04-21T08:08:34;101544.73;;;11.07;37.48
72330;BME280;69154;52.076;5.110;2023-04-21T08:11:00;101542.70;;;11.06;36.54
72330;BME280;69154;52.076;5.110;2023-04-21T08:13:25;101537.45;;;9.75;36.72
72330;BME280;69154;52.076;5.110;2023-04-21T08:15:51;101536.72;;;7.34;40.30
72330;BME280;69154;52.076;5.110;2023-04-21T08:18:16;101527.48;;;9.24;39.20
72330;BME280;69154;52.076;5.110;2023-04-21T08:20:42;101529.52;;;9.63;38.06
72330;BME280;69154;52.076;5.110;2023-04-21T08:23:07;101523.08;;;11.69;35.41
72330;BME280;69154;52.076;5.110;2023-04-21T08:25:33;101527.47;;;13.00;33.19
72330;BME280;69154;52.076;5.110;2023-04-21T08:27:59;101519.62;;;11.47;32.96
72330;BME280;69154;52.076;5.110;2023-04-21T08:30:25;101528.00;;;13.42;31.39
72330;BME280;69154;52.076;5.110;2023-04-21T08:32:50;101527.54;;;8.42;35.45
72330;BME280;69154;52.076;5.110;2023-04-21T08:35:15;101524.70;;;8.97;37.56
72330;BME280;69154;52.076;5.110;2023-04-21T08:37:41;101524.51;;;11.00;35.71
72330;BME280;69154;52.076;5.110;2023-04-21T08:40:08;101530.30;;;11.08;35.09
72330;BME280;69154;52.076;5.110;2023-04-21T08:42:33;101533.08;;;10.41;36.35
72330;BME280;69154;52.076;5.110;2023-04-21T08:44:58;101527.97;;;6.87;41.49
72330;BME280;69154;52.076;5.110;2023-04-21T08:47:24;101523.42;;;9.32;38.32
72330;BME280;69154;52.076;5.110;2023-04-21T08:49:50;101530.64;;;9.62;36.83
72330;BME280;69154;52.076;5.110;2023-04-21T08:52:15;101526.79;;;11.26;34.39
72330;BME280;69154;52.076;5.110;2023-04-21T08:54:40;101525.26;;;10.60;34.41
72330;BME280;69154;52.076;5.110;2023-04-21T08:57:05;101518.02;;;11.66;34.06
72330;BME280;69154;52.076;5.110;2023-04-21T08:59:31;101513.57;;;11.60;33.72
72330;BME280;69154;52.076;5.110;2023-04-21T09:02:13;101518.87;;;7.46;35.70
72330;BME280;69154;52.076;5.110;2023-04-21T09:04:22;101515.01;;;6.04;43.65
72330;BME280;69154;52.076;5.110;2023-04-21T09:06:47;101512.04;;;9.90;37.08
72330;BME280;69154;52.076;5.110;2023-04-21T09:09:12;101507.30;;;9.37;38.09
72330;BME280;69154;52.076;5.110;2023-04-21T09:11:38;101508.09;;;7.66;40.53
72330;BME280;69154;52.076;5.110;2023-04-21T09:14:03;101507.35;;;6.73;42.37
72330;BME280;69154;52.076;5.110;2023-04-21T09:16:30;101513.49;;;8.87;40.03
72330;BME280;69154;52.076;5.110;2023-04-21T09:18:54;101514.95;;;8.53;38.79
72330;BME280;69154;52.076;5.110;2023-04-21T09:21:26;101515.73;;;10.81;36.70
72330;BME280;69154;52.076;5.110;2023-04-21T09:23:51;101510.91;;;9.78;36.21
72330;BME280;69154;52.076;5.110;2023-04-21T09:26:11;101512.21;;;10.94;34.42
72330;BME280;69154;52.076;5.110;2023-04-21T09:28:39;101510.66;;;9.88;36.70
72330;BME280;69154;52.076;5.110;2023-04-21T09:31:01;101511.46;;;10.14;35.23
72330;BME280;69154;52.076;5.110;2023-04-21T09:33:26;101506.62;;;12.96;34.07
72330;BME280;69154;52.076;5.110;2023-04-21T09:35:51;101506.15;;;10.98;34.67
72330;BME280;69154;52.076;5.110;2023-04-21T09:38:21;101508.42;;;9.33;38.05
72330;BME280;69154;52.076;5.110;2023-04-21T09:40:43;101506.26;;;10.94;35.55
72330;BME280;69154;52.076;5.110;2023-04-21T09:43:08;101502.83;;;9.60;37.49
72330;BME280;69154;52.076;5.110;2023-04-21T09:45:33;101508.31;;;9.41;37.12
72330;BME280;69154;52.076;5.110;2023-04-21T09:48:00;101506.30;;;9.10;37.05
72330;BME280;69154;52.076;5.110;2023-04-21T09:50:25;101506.41;;;9.81;35.76
72330;BME280;69154;52.076;5.110;2023-04-21T09:52:51;101504.51;;;10.34;35.52
72330;BME280;69154;52.076;5.110;2023-04-21T09:55:17;101499.46;;;8.20;38.49
72330;BME280;69154;52.076;5.110;2023-04-21T09:57:43;101494.98;;;7.46;40.92
72330;BME280;69154;52.076;5.110;2023-04-21T10:00:10;101492.21;;;8.12;40.27
72330;BME280;69154;52.076;5.110;2023-04-21T10:02:41;101491.04;;;8.26;39.42
72330;BME280;69154;52.076;5.110;2023-04-21T10:04:57;101489.53;;;6.80;42.61
72330;BME280;69154;52.076;5.110;2023-04-21T10:07:22;101492.12;;;10.72;37.87
72330;BME280;69154;52.076;5.110;2023-04-21T10:09:50;101488.42;;;10.15;35.39
72330;BME280;69154;52.076;5.110;2023-04-21T10:12:14;101492.21;;;9.92;36.61
72330;BME280;69154;52.076;5.110;2023-04-21T10:14:40;101495.38;;;11.65;35.91
72330;BME280;69154;52.076;5.110;2023-04-21T10:17:05;101493.44;;;13.81;31.46
72330;BME280;69154;52.076;5.110;2023-04-21T10:19:29;101493.91;;;13.58;30.64
72330;BME280;69154;52.076;5.110;2023-04-21T10:21:55;101494.73;;;9.74;33.01
72330;BME280;69154;52.076;5.110;2023-04-21T10:24:20;101490.99;;;7.85;38.98
72330;BME280;69154;52.076;5.110;2023-04-21T10:26:46;101488.24;;;10.55;35.25
72330;BME280;69154;52.076;5.110;2023-04-21T10:29:11;101484.70;;;8.93;38.15
72330;BME280;69154;52.076;5.110;2023-04-21T10:31:39;101485.78;;;7.21;40.90
72330;BME280;69154;52.076;5.110;2023-04-21T10:34:35;101480.87;;;9.56;36.97
72330;BME280;69154;52.076;5.110;2023-04-21T10:36:26;101480.69;;;9.60;38.11
72330;BME280;69154;52.076;5.110;2023-04-21T10:38:54;101475.77;;;8.30;38.64
72330;BME280;69154;52.076;5.110;2023-04-21T10:41:25;101481.81;;;9.94;36.90
72330;BME280;69154;52.076;5.110;2023-04-21T10:43:43;101477.68;;;9.57;38.03
72330;BME280;69154;52.076;5.110;2023-04-21T10:46:30;101473.67;;;10.54;36.36
72330;BME280;69154;52.076;5.110;2023-04-21T10:48:36;101470.39;;;10.04;37.20
72330;BME280;69154;52.076;5.110;2023-04-21T10:50:59;101469.47;;;9.14;37.96
72330;BME280;69154;52.076;5.110;2023-04-21T10:53:24;101463.77;;;8.66;38.78
72330;BME280;69154;52.076;5.110;2023-04-21T10:55:49;101463.22;;;9.69;37.45
72330;BME280;69154;52.076;5.110;2023-04-21T10:58:16;101457.99;;;11.10;35.00
72330;BME280;69154;52.076;5.110;2023-04-21T11:00:41;101457.49;;;12.80;33.14
72330;BME280;69154;52.076;5.110;2023-04-21T11:03:07;101450.75;;;12.37;32.62
72330;BME280;69154;52.076;5.110;2023-04-21T11:05:34;101445.30;;;14.44;30.02
72330;BME280;69154;52.076;5.110;2023-04-21T11:08:02;101436.23;;;14.93;28.48
72330;BME280;69154;52.076;5.110;2023-04-21T11:10:23;101431.58;;;12.72;30.72
72330;BME280;69154;52.076;5.110;2023-04-21T11:12:49;101433.44;;;10.02;34.10
72330;BME280;69154;52.076;5.110;2023-04-21T11:15:14;101434.94;;;11.60;32.79
72330;BME280;69154;52.076;5.110;2023-04-21T11:17:40;101442.65;;;8.35;38.06
72330;BME280;69154;52.076;5.110;2023-04-21T11:20:06;101436.28;;;8.82;38.16
72330;BME280;69154;52.076;5.110;2023-04-21T11:22:31;101430.73;;;9.39;37.15
72330;BME280;69154;52.076;5.110;2023-04-21T11:24:57;101423.78;;;9.01;36.18
72330;BME280;69154;52.076;5.110;2023-04-21T11:27:22;101421.43;;;9.14;37.28
72330;BME280;69154;52.076;5.110;2023-04-21T11:29:47;101419.64;;;9.76;36.27
72330;BME280;69154;52.076;5.110;2023-04-21T11:32:13;101414.89;;;10.00;36.23
72330;BME280;69154;52.076;5.110;2023-04-21T11:34:38;101409.92;;;13.19;33.60
72330;BME280;69154;52.076;5.110;2023-04-21T11:37:03;101413.86;;;10.46;35.79
72330;BME280;69154;52.076;5.110;2023-04-21T11:39:28;101405.47;;;12.46;33.86
72330;BME280;69154;52.076;5.110;2023-04-21T11:41:53;101398.96;;;10.55;35.67
72330;BME280;69154;52.076;5.110;2023-04-21T11:44:30;101397.73;;;11.26;34.45
72330;BME280;69154;52.076;5.110;2023-04-21T11:46:45;101405.04;;;8.99;37.73
72330;BME280;69154;52.076;5.110;2023-04-21T11:49:11;101398.05;;;9.64;37.81
72330;BME280;69154;52.076;5.110;2023-04-21T11:51:35;101399.69;;;9.83;37.39
72330;BME280;69154;52.076;5.110;2023-04-21T11:54:00;101394.75;;;10.42;36.69
72330;BME280;69154;52.076;5.110;2023-04-21T11:56:25;101389.99;;;10.64;35.31
72330;BME280;69154;52.076;5.110;2023-04-21T11:58:51;101381.80;;;11.18;35.08
72330;BME280;69154;52.076;5.110;2023-04-21T12:01:17;101381.27;;;11.29;34.84
72330;BME280;69154;52.076;5.110;2023-04-21T12:03:41;101381.51;;;11.59;34.73
72330;BME280;69154;52.076;5.110;2023-04-21T12:06:07;101376.52;;;14.83;30.44
72330;BME280;69154;52.076;5.110;2023-04-21T12:08:32;101371.55;;;14.23;28.83
72330;BME280;69154;52.076;5.110;2023-04-21T12:10:58;101369.10;;;11.92;31.98
72330;BME280;69154;52.076;5.110;2023-04-21T12:13:23;101369.45;;;10.82;32.50
72330;BME280;69154;52.076;5.110;2023-04-21T12:15:49;101366.79;;;12.81;30.65
72330;BME280;69154;52.076;5.110;2023-04-21T12:18:14;101365.81;;;15.74;27.39
72330;BME280;69154;52.076;5.110;2023-04-21T12:20:47;101363.12;;;12.22;31.09
72330;BME280;69154;52.076;5.110;2023-04-21T12:23:04;101361.21;;;11.25;32.37
72330;BME280;69154;52.076;5.110;2023-04-21T12:25:29;101357.43;;;12.56;32.11
72330;BME280;69154;52.076;5.110;2023-04-21T12:27:57;101353.46;;;11.83;33.08
72330;BME280;69154;52.076;5.110;2023-04-21T12:30:21;101351.23;;;11.44;33.19
72330;BME280;69154;52.076;5.110;2023-04-21T12:32:46;101348.02;;;11.01;34.70
72330;BME280;69154;52.076;5.110;2023-04-21T12:35:11;101346.95;;;13.47;32.56
72330;BME280;69154;52.076;5.110;2023-04-21T12:37:37;101345.47;;;14.93;31.10
72330;BME280;69154;52.076;5.110;2023-04-21T12:40:03;101328.21;;;15.60;28.47
72330;BME280;69154;52.076;5.110;2023-04-21T12:42:28;101325.67;;;15.54;28.85
72330;BME280;69154;52.076;5.110;2023-04-21T12:44:54;101329.33;;;17.55;26.45
72330;BME280;69154;52.076;5.110;2023-04-21T12:47:19;101325.86;;;15.07;27.84